To NAV CANADA Home Page Login to a new session Search on AWWS site Feedback and Comments Disclaimer Vers la page française équivalente Tips FAQ What's new on the site To the Forecasts and Observations / NOTAM section To "File a Flight Plan" website Publications and other links Update of the User's profile FIC Telephone Numbers My Weather Data Folder Route Weather Data Regional Weather Data Local Weather Data To the Forecasts and Observations / NOTAM section
Request Generated 05/28/2016 at 20:02:04 UTC . Weather information available at that time is displayed.

METAR/TAF

MONTREAL/PIERRE-ELLIOTT-TRUDEAU INTL/QC    

METAR CYUL 282000Z 04005KT 020V080 15SM FEW050 SCT150 OVC250 28/16
A3007 RMK CU1AC4CI4 CU TR SLP185 DENSITY ALT 1400FT=
METAR CYUL 281900Z 10003KT 020V120 15SM FEW050TCU BKN160 OVC250 28/15
A3008 RMK TCU1AC6CI2 TCU TR SLP188 DENSITY ALT 1400FT=
METAR CYUL 281800Z VRB04KT 15SM FEW045 BKN160 OVC250 27/15 A3009 RMK
CU1AC5CI3 CU TR SLP190 DENSITY ALT 1300FT=

TAF CYUL 281738Z 2818/2918 05005KT P6SM BKN240
FM282100 07008KT P6SM SCT100
FM291200 04010KT P6SM BKN100
RMK NXT FCST BY 282100Z=
Your time UTC time
Weather data provided by Environment Canada and NAV CANADA